sensor_id;sensor_type;location;lat;lon;timestamp;temperature;humidity
11934;DHT22;6026;48.784;9.198;2023-04-24T00:01:41;10.90;99.90
11934;DHT22;6026;48.784;9.198;2023-04-24T00:04:08;10.90;99.90
11934;DHT22;6026;48.784;9.198;2023-04-24T00:06:36;10.90;99.90
11934;DHT22;6026;48.784;9.198;2023-04-24T00:09:03;10.90;99.90
11934;DHT22;6026;48.784;9.198;2023-04-24T00:11:29;11.00;99.90
11934;DHT22;6026;48.784;9.198;2023-04-24T00:13:56;11.00;99.90
11934;DHT22;6026;48.784;9.198;2023-04-24T00:16:21;10.90;99.90
11934;DHT22;6026;48.784;9.198;2023-04-24T00:18:47;11.00;99.90
11934;DHT22;6026;48.784;9.198;2023-04-24T00:21:16;10.90;99.90
11934;DHT22;6026;48.784;9.198;2023-04-24T00:23:43;10.90;99.90
11934;DHT22;6026;48.784;9.198;2023-04-24T00:26:09;10.90;99.90
11934;DHT22;6026;48.784;9.198;2023-04-24T00:28:35;10.90;99.90
11934;DHT22;6026;48.784;9.198;2023-04-24T00:31:00;10.90;99.90
11934;DHT22;6026;48.784;9.198;2023-04-24T00:33:26;11.00;99.90
11934;DHT22;6026;48.784;9.198;2023-04-24T00:35:52;11.00;99.90
11934;DHT22;6026;48.784;9.198;2023-04-24T00:38:17;11.00;99.90
11934;DHT22;6026;48.784;9.198;2023-04-24T00:40:43;11.00;99.90
11934;DHT22;6026;48.784;9.198;2023-04-24T00:43:09;11.00;99.90
11934;DHT22;6026;48.784;9.198;2023-04-24T00:45:35;11.10;99.90
11934;DHT22;6026;48.784;9.198;2023-04-24T00:48:02;11.10;99.90
11934;DHT22;6026;48.784;9.198;2023-04-24T00:50:28;11.10;99.90
11934;DHT22;6026;48.784;9.198;2023-04-24T00:52:54;11.10;99.90
11934;DHT22;6026;48.784;9.198;2023-04-24T00:55:19;11.10;99.90
11934;DHT22;6026;48.784;9.198;2023-04-24T00:57:46;11.20;99.90
11934;DHT22;6026;48.784;9.198;2023-04-24T01:00:12;11.20;99.90
11934;DHT22;6026;48.784;9.198;2023-04-24T01:02:39;11.20;99.90
11934;DHT22;6026;48.784;9.198;2023-04-24T01:05:09;11.20;99.90
11934;DHT22;6026;48.784;9.198;2023-04-24T01:07:35;11.30;99.90
11934;DHT22;6026;48.784;9.198;2023-04-24T01:10:01;11.20;99.90
11934;DHT22;6026;48.784;9.198;2023-04-24T01:12:27;11.20;99.90
11934;DHT22;6026;48.784;9.198;2023-04-24T01:14:53;11.30;99.90
11934;DHT22;6026;48.784;9.198;2023-04-24T01:17:20;11.40;99.90
11934;DHT22;6026;48.784;9.198;2023-04-24T01:19:46;11.30;99.90
11934;DHT22;6026;48.784;9.198;2023-04-24T01:22:13;11.30;99.90
11934;DHT22;6026;48.784;9.198;2023-04-24T01:24:40;11.30;99.90
11934;DHT22;6026;48.784;9.198;2023-04-24T01:27:06;11.30;99.90
11934;DHT22;6026;48.784;9.198;2023-04-24T01:29:32;11.40;99.90
11934;DHT22;6026;48.784;9.198;2023-04-24T01:31:58;11.40;99.90
11934;DHT22;6026;48.784;9.198;2023-04-24T01:34:24;11.40;99.90
11934;DHT22;6026;48.784;9.198;2023-04-24T01:36:49;11.30;99.90
11934;DHT22;6026;48.784;9.198;2023-04-24T01:39:15;11.30;99.90
11934;DHT22;6026;48.784;9.198;2023-04-24T01:41:42;11.20;99.90
11934;DHT22;6026;48.784;9.198;2023-04-24T01:44:07;11.10;99.90
11934;DHT22;6026;48.784;9.198;2023-04-24T01:46:33;11.10;99.90
11934;DHT22;6026;48.784;9.198;2023-04-24T01:49:01;11.00;99.90
11934;DHT22;6026;48.784;9.198;2023-04-24T01:51:27;11.10;99.90
11934;DHT22;6026;48.784;9.198;2023-04-24T01:53:52;11.00;99.90
11934;DHT22;6026;48.784;9.198;2023-04-24T01:56:20;11.00;99.90
11934;DHT22;6026;48.784;9.198;2023-04-24T01:58:46;11.00;99.90
11934;DHT22;6026;48.784;9.198;2023-04-24T02:01:22;11.00;99.90
11934;DHT22;6026;48.784;9.198;2023-04-24T02:03:49;11.00;99.90
11934;DHT22;6026;48.784;9.198;2023-04-24T02:06:14;11.00;99.90
11934;DHT22;6026;48.784;9.198;2023-04-24T02:08:40;11.00;99.90
11934;DHT22;6026;48.784;9.198;2023-04-24T02:11:05;11.00;99.90
11934;DHT22;6026;48.784;9.198;2023-04-24T02:13:31;11.00;99.90
11934;DHT22;6026;48.784;9.198;2023-04-24T02:15:58;11.00;99.90
11934;DHT22;6026;48.784;9.198;2023-04-24T02:18:24;10.90;99.90
11934;DHT22;6026;48.784;9.198;2023-04-24T02:20:49;10.90;99.90
11934;DHT22;6026;48.784;9.198;2023-04-24T02:23:15;10.90;99.90
11934;DHT22;6026;48.784;9.198;2023-04-24T02:25:41;10.90;99.90
11934;DHT22;6026;48.784;9.198;2023-04-24T02:28:06;10.90;99.90
11934;DHT22;6026;48.784;9.198;2023-04-24T02:30:32;10.90;99.90
11934;DHT22;6026;48.784;9.198;2023-04-24T02:32:57;10.90;99.90
11934;DHT22;6026;48.784;9.198;2023-04-24T02:35:23;10.80;99.90
11934;DHT22;6026;48.784;9.198;2023-04-24T02:37:49;10.90;99.90
11934;DHT22;6026;48.784;9.198;2023-04-24T02:40:14;10.90;99.90
11934;DHT22;6026;48.784;9.198;2023-04-24T02:42:40;10.90;99.90
11934;DHT22;6026;48.784;9.198;2023-04-24T02:45:06;10.90;99.90
11934;DHT22;6026;48.784;9.198;2023-04-24T02:47:32;11.00;99.90
11934;DHT22;6026;48.784;9.198;2023-04-24T02:49:57;10.90;99.90
11934;DHT22;6026;48.784;9.198;2023-04-24T02:52:23;10.80;99.90
11934;DHT22;6026;48.784;9.198;2023-04-24T02:54:48;10.70;99.90
11934;DHT22;6026;48.784;9.198;2023-04-24T02:57:14;10.60;99.90
11934;DHT22;6026;48.784;9.198;2023-04-24T02:59:40;10.50;99.90
11934;DHT22;6026;48.784;9.198;2023-04-24T03:02:05;10.40;99.90
11934;DHT22;6026;48.784;9.198;2023-04-24T03:04:31;10.30;99.90
11934;DHT22;6026;48.784;9.198;2023-04-24T03:06:57;10.20;99.90
11934;DHT22;6026;48.784;9.198;2023-04-24T03:09:23;10.10;99.90
11934;DHT22;6026;48.784;9.198;2023-04-24T03:11:49;10.10;99.90
11934;DHT22;6026;48.784;9.198;2023-04-24T03:14:15;10.10;99.90
11934;DHT22;6026;48.784;9.198;2023-04-24T03:16:40;10.10;99.90
11934;DHT22;6026;48.784;9.198;2023-04-24T03:19:06;10.10;99.90
11934;DHT22;6026;48.784;9.198;2023-04-24T03:21:32;10.00;99.90
11934;DHT22;6026;48.784;9.198;2023-04-24T03:23:58;10.00;99.90
11934;DHT22;6026;48.784;9.198;2023-04-24T03:26:23;10.00;99.90
11934;DHT22;6026;48.784;9.198;2023-04-24T03:28:49;10.00;99.90
11934;DHT22;6026;48.784;9.198;2023-04-24T03:31:14;10.00;99.90
11934;DHT22;6026;48.784;9.198;2023-04-24T03:33:40;10.00;99.90
11934;DHT22;6026;48.784;9.198;2023-04-24T03:36:06;10.00;99.90
11934;DHT22;6026;48.784;9.198;2023-04-24T03:38:32;9.90;99.90
11934;DHT22;6026;48.784;9.198;2023-04-24T03:40:57;9.90;99.90
11934;DHT22;6026;48.784;9.198;2023-04-24T03:43:23;10.00;99.90
11934;DHT22;6026;48.784;9.198;2023-04-24T03:45:49;10.00;99.90
11934;DHT22;6026;48.784;9.198;2023-04-24T03:48:14;10.00;99.90
11934;DHT22;6026;48.784;9.198;2023-04-24T03:50:40;10.00;99.90
11934;DHT22;6026;48.784;9.198;2023-04-24T03:53:06;10.00;99.90
11934;DHT22;6026;48.784;9.198;2023-04-24T03:55:32;10.00;99.90
11934;DHT22;6026;48.784;9.198;2023-04-24T03:57:57;10.00;99.90
11934;DHT22;6026;48.784;9.198;2023-04-24T04:00:23;10.00;99.90
11934;DHT22;6026;48.784;9.198;2023-04-24T04:02:49;10.00;99.90
11934;DHT22;6026;48.784;9.198;2023-04-24T04:05:14;10.00;99.90
11934;DHT22;6026;48.784;9.198;2023-04-24T04:07:40;9.90;99.90
11934;DHT22;6026;48.784;9.198;2023-04-24T04:10:06;9.90;99.90
11934;DHT22;6026;48.784;9.198;2023-04-24T04:12:32;9.90;99.90
11934;DHT22;6026;48.784;9.198;2023-04-24T04:14:58;9.90;99.90
11934;DHT22;6026;48.784;9.198;2023-04-24T04:17:23;9.90;99.90
11934;DHT22;6026;48.784;9.198;2023-04-24T04:19:49;9.90;99.90
11934;DHT22;6026;48.784;9.198;2023-04-24T04:22:14;10.00;99.90
11934;DHT22;6026;48.784;9.198;2023-04-24T04:24:40;10.10;99.90
11934;DHT22;6026;48.784;9.198;2023-04-24T04:27:06;10.10;99.90
11934;DHT22;6026;48.784;9.198;2023-04-24T04:29:32;10.10;99.90
11934;DHT22;6026;48.784;9.198;2023-04-24T04:31:58;10.10;99.90
11934;DHT22;6026;48.784;9.198;2023-04-24T04:34:23;10.10;99.90
11934;DHT22;6026;48.784;9.198;2023-04-24T04:36:49;10.00;99.90
11934;DHT22;6026;48.784;9.198;2023-04-24T04:39:15;9.90;99.90
11934;DHT22;6026;48.784;9.198;2023-04-24T04:41:42;9.90;99.90
11934;DHT22;6026;48.784;9.198;2023-04-24T04:44:07;9.90;99.90
11934;DHT22;6026;48.784;9.198;2023-04-24T04:46:34;9.80;99.90
11934;DHT22;6026;48.784;9.198;2023-04-24T04:49:00;9.80;99.90
11934;DHT22;6026;48.784;9.198;2023-04-24T04:51:26;9.60;99.90
11934;DHT22;6026;48.784;9.198;2023-04-24T04:53:52;9.50;99.90
11934;DHT22;6026;48.784;9.198;2023-04-24T04:56:18;9.50;99.90
11934;DHT22;6026;48.784;9.198;2023-04-24T04:58:43;9.40;99.90
11934;DHT22;6026;48.784;9.198;2023-04-24T05:01:09;9.40;99.90
11934;DHT22;6026;48.784;9.198;2023-04-24T05:03:35;9.30;99.90
11934;DHT22;6026;48.784;9.198;2023-04-24T05:06:01;9.30;99.90
11934;DHT22;6026;48.784;9.198;2023-04-24T05:08:27;9.20;99.90
11934;DHT22;6026;48.784;9.198;2023-04-24T05:10:53;9.30;99.90
11934;DHT22;6026;48.784;9.198;2023-04-24T05:13:19;9.30;99.90
11934;DHT22;6026;48.784;9.198;2023-04-24T05:15:45;9.30;99.90
11934;DHT22;6026;48.784;9.198;2023-04-24T05:18:10;9.30;99.90
11934;DHT22;6026;48.784;9.198;2023-04-24T05:20:36;9.30;99.90
11934;DHT22;6026;48.784;9.198;2023-04-24T05:23:02;9.30;99.90
11934;DHT22;6026;48.784;9.198;2023-04-24T05:25:27;9.30;99.90
11934;DHT22;6026;48.784;9.198;2023-04-24T05:27:53;9.30;99.90
11934;DHT22;6026;48.784;9.198;2023-04-24T05:30:19;9.30;99.90
11934;DHT22;6026;48.784;9.198;2023-04-24T05:32:45;9.30;99.90
11934;DHT22;6026;48.784;9.198;2023-04-24T05:35:11;9.30;99.90
11934;DHT22;6026;48.784;9.198;2023-04-24T05:37:37;9.30;99.90
11934;DHT22;6026;48.784;9.198;2023-04-24T05:40:03;9.30;99.90
11934;DHT22;6026;48.784;9.198;2023-04-24T05:42:31;9.40;99.90
11934;DHT22;6026;48.784;9.198;2023-04-24T05:44:56;9.40;99.90
11934;DHT22;6026;48.784;9.198;2023-04-24T05:47:22;9.30;99.90
11934;DHT22;6026;48.784;9.198;2023-04-24T05:49:47;9.40;99.90
11934;DHT22;6026;48.784;9.198;2023-04-24T05:52:13;9.40;99.90
11934;DHT22;6026;48.784;9.198;2023-04-24T05:54:39;9.40;99.90
11934;DHT22;6026;48.784;9.198;2023-04-24T05:57:04;9.50;99.90
11934;DHT22;6026;48.784;9.198;2023-04-24T05:59:34;9.50;99.90
11934;DHT22;6026;48.784;9.198;2023-04-24T06:01:59;9.50;99.90
11934;DHT22;6026;48.784;9.198;2023-04-24T06:04:25;9.50;99.90
11934;DHT22;6026;48.784;9.198;2023-04-24T06:06:51;9.50;99.90
11934;DHT22;6026;48.784;9.198;2023-04-24T06:09:24;9.50;99.90
11934;DHT22;6026;48.784;9.198;2023-04-24T06:11:49;9.50;99.90
11934;DHT22;6026;48.784;9.198;2023-04-24T06:14:18;9.50;99.90
11934;DHT22;6026;48.784;9.198;2023-04-24T06:16:43;9.50;99.90
11934;DHT22;6026;48.784;9.198;2023-04-24T06:19:09;9.50;99.90
11934;DHT22;6026;48.784;9.198;2023-04-24T06:21:34;9.50;99.90
11934;DHT22;6026;48.784;9.198;2023-04-24T06:24:00;9.50;99.90
11934;DHT22;6026;48.784;9.198;2023-04-24T06:26:26;9.60;99.90
11934;DHT22;6026;48.784;9.198;2023-04-24T06:28:52;9.80;99.90
11934;DHT22;6026;48.784;9.198;2023-04-24T06:31:19;10.10;99.90
11934;DHT22;6026;48.784;9.198;2023-04-24T06:33:45;10.50;99.90
11934;DHT22;6026;48.784;9.198;2023-04-24T06:36:12;10.70;99.90
11934;DHT22;6026;48.784;9.198;2023-04-24T06:38:37;11.00;99.90
11934;DHT22;6026;48.784;9.198;2023-04-24T06:41:03;11.30;99.90
11934;DHT22;6026;48.784;9.198;2023-04-24T06:43:31;11.60;99.90
11934;DHT22;6026;48.784;9.198;2023-04-24T06:45:57;11.70;99.90
11934;DHT22;6026;48.784;9.198;2023-04-24T06:48:24;11.80;99.90
11934;DHT22;6026;48.784;9.198;2023-04-24T06:50:50;12.00;99.90
11934;DHT22;6026;48.784;9.198;2023-04-24T06:53:16;12.40;99.90
11934;DHT22;6026;48.784;9.198;2023-04-24T06:55:42;12.60;99.90
11934;DHT22;6026;48.784;9.198;2023-04-24T06:58:08;12.80;99.90
11934;DHT22;6026;48.784;9.198;2023-04-24T07:00:34;13.00;99.90
11934;DHT22;6026;48.784;9.198;2023-04-24T07:03:00;13.30;99.90
11934;DHT22;6026;48.784;9.198;2023-04-24T07:05:25;13.60;99.90
11934;DHT22;6026;48.784;9.198;2023-04-24T07:07:51;13.60;99.90
11934;DHT22;6026;48.784;9.198;2023-04-24T07:10:17;13.30;99.90
11934;DHT22;6026;48.784;9.198;2023-04-24T07:12:43;13.40;99.90
11934;DHT22;6026;48.784;9.198;2023-04-24T07:15:09;13.00;99.90
11934;DHT22;6026;48.784;9.198;2023-04-24T07:17:35;12.90;99.90
11934;DHT22;6026;48.784;9.198;2023-04-24T07:20:00;12.70;99.90
11934;DHT22;6026;48.784;9.198;2023-04-24T07:22:26;12.50;99.90
11934;DHT22;6026;48.784;9.198;2023-04-24T07:24:52;12.30;99.90
11934;DHT22;6026;48.784;9.198;2023-04-24T07:27:17;12.10;99.90
11934;DHT22;6026;48.784;9.198;2023-04-24T07:29:43;12.00;99.90
11934;DHT22;6026;48.784;9.198;2023-04-24T07:32:08;11.80;99.90
11934;DHT22;6026;48.784;9.198;2023-04-24T07:34:34;11.70;99.90
11934;DHT22;6026;48.784;9.198;2023-04-24T07:37:00;11.80;99.90
11934;DHT22;6026;48.784;9.198;2023-04-24T07:39:27;11.80;99.90
11934;DHT22;6026;48.784;9.198;2023-04-24T07:41:53;11.90;99.90
11934;DHT22;6026;48.784;9.198;2023-04-24T07:44:18;12.20;99.90
11934;DHT22;6026;48.784;9.198;2023-04-24T07:46:44;12.60;99.90
11934;DHT22;6026;48.784;9.198;2023-04-24T07:49:10;13.00;99.90
11934;DHT22;6026;48.784;9.198;2023-04-24T07:51:35;13.20;99.90
11934;DHT22;6026;48.784;9.198;2023-04-24T07:54:04;13.20;99.90
11934;DHT22;6026;48.784;9.198;2023-04-24T07:56:31;13.00;99.90
11934;DHT22;6026;48.784;9.198;2023-04-24T07:58:57;12.80;99.90
11934;DHT22;6026;48.784;9.198;2023-04-24T08:01:22;12.60;99.90
11934;DHT22;6026;48.784;9.198;2023-04-24T08:03:48;12.70;99.90
11934;DHT22;6026;48.784;9.198;2023-04-24T08:06:13;12.60;99.90
11934;DHT22;6026;48.784;9.198;2023-04-24T08:08:39;12.50;99.90
11934;DHT22;6026;48.784;9.198;2023-04-24T08:11:05;12.30;99.90
11934;DHT22;6026;48.784;9.198;2023-04-24T08:13:30;12.20;99.90
11934;DHT22;6026;48.784;9.198;2023-04-24T08:15:56;12.10;99.90
11934;DHT22;6026;48.784;9.198;2023-04-24T08:18:22;11.90;99.90
11934;DHT22;6026;48.784;9.198;2023-04-24T08:20:48;11.90;99.90
11934;DHT22;6026;48.784;9.198;2023-04-24T08:23:14;12.00;99.90
11934;DHT22;6026;48.784;9.198;2023-04-24T08:25:39;12.00;99.90
11934;DHT22;6026;48.784;9.198;2023-04-24T08:28:06;12.00;99.90
11934;DHT22;6026;48.784;9.198;2023-04-24T08:30:33;12.10;99.90
11934;DHT22;6026;48.784;9.198;2023-04-24T08:32:59;12.30;99.90
11934;DHT22;6026;48.784;9.198;2023-04-24T08:35:25;12.40;99.90
11934;DHT22;6026;48.784;9.198;2023-04-24T08:37:52;12.40;99.90
11934;DHT22;6026;48.784;9.198;2023-04-24T08:40:17;12.40;99.90
11934;DHT22;6026;48.784;9.198;2023-04-24T08:42:44;12.40;99.90
11934;DHT22;6026;48.784;9.198;2023-04-24T08:45:12;12.40;99.90
11934;DHT22;6026;48.784;9.198;2023-04-24T08:47:38;12.40;99.90
11934;DHT22;6026;48.784;9.198;2023-04-24T08:50:05;12.20;99.90
11934;DHT22;6026;48.784;9.198;2023-04-24T08:52:32;12.20;99.90
11934;DHT22;6026;48.784;9.198;2023-04-24T08:55:00;12.00;99.90
11934;DHT22;6026;48.784;9.198;2023-04-24T08:57:27;11.80;99.90
11934;DHT22;6026;48.784;9.198;2023-04-24T08:59:54;11.70;99.90
11934;DHT22;6026;48.784;9.198;2023-04-24T09:02:21;11.80;99.90
11934;DHT22;6026;48.784;9.198;2023-04-24T09:04:48;11.90;99.90
11934;DHT22;6026;48.784;9.198;2023-04-24T09:07:16;12.30;99.90
11934;DHT22;6026;48.784;9.198;2023-04-24T09:09:43;12.70;99.90
11934;DHT22;6026;48.784;9.198;2023-04-24T09:12:09;12.50;99.90
11934;DHT22;6026;48.784;9.198;2023-04-24T09:14:36;12.40;99.90
11934;DHT22;6026;48.784;9.198;2023-04-24T09:17:05;12.20;99.90
11934;DHT22;6026;48.784;9.198;2023-04-24T09:19:31;12.00;99.90
11934;DHT22;6026;48.784;9.198;2023-04-24T09:21:57;11.70;99.90
11934;DHT22;6026;48.784;9.198;2023-04-24T09:24:22;11.30;99.90
11934;DHT22;6026;48.784;9.198;2023-04-24T09:26:49;11.00;99.90
11934;DHT22;6026;48.784;9.198;2023-04-24T09:29:18;10.90;99.90
11934;DHT22;6026;48.784;9.198;2023-04-24T09:31:45;10.80;99.90
11934;DHT22;6026;48.784;9.198;2023-04-24T09:34:11;10.70;99.90
11934;DHT22;6026;48.784;9.198;2023-04-24T09:36:39;10.50;99.90
11934;DHT22;6026;48.784;9.198;2023-04-24T09:39:11;10.40;99.90
11934;DHT22;6026;48.784;9.198;2023-04-24T09:44:15;10.40;99.90
11934;DHT22;6026;48.784;9.198;2023-04-24T09:46:42;10.50;99.90
11934;DHT22;6026;48.784;9.198;2023-04-24T09:49:30;10.70;99.90
11934;DHT22;6026;48.784;9.198;2023-04-24T09:52:07;11.00;99.90
11934;DHT22;6026;48.784;9.198;2023-04-24T09:54:32;11.20;99.90
11934;DHT22;6026;48.784;9.198;2023-04-24T09:56:58;11.40;99.90
11934;DHT22;6026;48.784;9.198;2023-04-24T09:59:25;11.60;99.90
11934;DHT22;6026;48.784;9.198;2023-04-24T10:01:51;11.70;99.90
11934;DHT22;6026;48.784;9.198;2023-04-24T10:04:22;11.70;99.90
11934;DHT22;6026;48.784;9.198;2023-04-24T10:06:49;11.80;99.90
11934;DHT22;6026;48.784;9.198;2023-04-24T10:09:16;11.90;99.90
11934;DHT22;6026;48.784;9.198;2023-04-24T10:11:44;12.00;99.90
11934;DHT22;6026;48.784;9.198;2023-04-24T10:14:14;12.00;99.90
11934;DHT22;6026;48.784;9.198;2023-04-24T10:16:40;12.20;99.90
11934;DHT22;6026;48.784;9.198;2023-04-24T10:19:06;12.30;99.90
11934;DHT22;6026;48.784;9.198;2023-04-24T10:21:32;12.80;99.90
11934;DHT22;6026;48.784;9.198;2023-04-24T10:23:59;13.40;99.90
11934;DHT22;6026;48.784;9.198;2023-04-24T10:26:28;13.90;99.90
11934;DHT22;6026;48.784;9.198;2023-04-24T10:28:57;14.40;99.90
11934;DHT22;6026;48.784;9.198;2023-04-24T10:31:23;14.90;99.90
11934;DHT22;6026;48.784;9.198;2023-04-24T10:33:50;15.00;99.90
11934;DHT22;6026;48.784;9.198;2023-04-24T10:36:17;14.90;99.90
11934;DHT22;6026;48.784;9.198;2023-04-24T10:38:43;14.70;99.90
11934;DHT22;6026;48.784;9.198;2023-04-24T10:41:12;14.30;99.90
11934;DHT22;6026;48.784;9.198;2023-04-24T10:43:48;13.80;99.90
11934;DHT22;6026;48.784;9.198;2023-04-24T10:46:20;13.60;99.90
11934;DHT22;6026;48.784;9.198;2023-04-24T10:48:53;13.30;99.90
11934;DHT22;6026;48.784;9.198;2023-04-24T10:51:23;13.20;99.90
11934;DHT22;6026;48.784;9.198;2023-04-24T10:53:50;13.10;99.90
11934;DHT22;6026;48.784;9.198;2023-04-24T10:56:17;13.10;99.90
11934;DHT22;6026;48.784;9.198;2023-04-24T10:58:44;12.90;99.90
11934;DHT22;6026;48.784;9.198;2023-04-24T11:01:29;12.80;99.90
11934;DHT22;6026;48.784;9.198;2023-04-24T11:04:00;12.80;99.90
11934;DHT22;6026;48.784;9.198;2023-04-24T11:06:34;12.90;99.90
11934;DHT22;6026;48.784;9.198;2023-04-24T11:09:06;12.80;99.90
11934;DHT22;6026;48.784;9.198;2023-04-24T11:11:32;12.90;99.90
11934;DHT22;6026;48.784;9.198;2023-04-24T11:16:27;12.60;99.90
11934;DHT22;6026;48.784;9.198;2023-04-24T11:19:08;12.50;99.90
11934;DHT22;6026;48.784;9.198;2023-04-24T11:29:20;12.50;99.90
11934;DHT22;6026;48.784;9.198;2023-04-24T11:31:47;12.60;99.90
11934;DHT22;6026;48.784;9.198;2023-04-24T11:34:17;12.70;99.90
11934;DHT22;6026;48.784;9.198;2023-04-24T11:36:44;13.00;99.90
11934;DHT22;6026;48.784;9.198;2023-04-24T11:39:10;13.00;99.90
11934;DHT22;6026;48.784;9.198;2023-04-24T11:41:37;13.10;99.90
11934;DHT22;6026;48.784;9.198;2023-04-24T11:44:03;13.30;99.90
11934;DHT22;6026;48.784;9.198;2023-04-24T11:46:31;13.40;99.90
11934;DHT22;6026;48.784;9.198;2023-04-24T11:48:58;13.30;99.90
11934;DHT22;6026;48.784;9.198;2023-04-24T11:51:25;13.00;99.90
11934;DHT22;6026;48.784;9.198;2023-04-24T11:53:52;12.90;99.90
11934;DHT22;6026;48.784;9.198;2023-04-24T11:56:18;12.50;99.90
11934;DHT22;6026;48.784;9.198;2023-04-24T11:58:47;12.10;99.90
11934;DHT22;6026;48.784;9.198;2023-04-24T12:01:13;12.00;99.90
11934;DHT22;6026;48.784;9.198;2023-04-24T12:03:39;12.00;99.90
11934;DHT22;6026;48.784;9.198;2023-04-24T12:06:09;12.20;99.90
11934;DHT22;6026;48.784;9.198;2023-04-24T12:08:35;12.50;99.90
11934;DHT22;6026;48.784;9.198;2023-04-24T12:11:02;12.60;99.90
11934;DHT22;6026;48.784;9.198;2023-04-24T12:13:28;12.90;99.90
11934;DHT22;6026;48.784;9.198;2023-04-24T12:15:54;13.20;99.90
11934;DHT22;6026;48.784;9.198;2023-04-24T12:18:22;13.20;99.90
11934;DHT22;6026;48.784;9.198;2023-04-24T12:20:48;13.20;99.90
11934;DHT22;6026;48.784;9.198;2023-04-24T12:23:14;13.20;99.90
11934;DHT22;6026;48.784;9.198;2023-04-24T12:25:39;12.70;99.90
11934;DHT22;6026;48.784;9.198;2023-04-24T12:30:42;12.50;99.90
11934;DHT22;6026;48.784;9.198;2023-04-24T12:33:11;12.60;99.90
11934;DHT22;6026;48.784;9.198;2023-04-24T12:35:37;12.40;99.90
11934;DHT22;6026;48.784;9.198;2023-04-24T12:38:09;12.40;99.90
11934;DHT22;6026;48.784;9.198;2023-04-24T12:40:35;12.40;99.90
11934;DHT22;6026;48.784;9.198;2023-04-24T12:43:01;12.30;99.90
11934;DHT22;6026;48.784;9.198;2023-04-24T12:45:26;12.30;99.90
11934;DHT22;6026;48.784;9.198;2023-04-24T12:47:53;12.40;99.90
11934;DHT22;6026;48.784;9.198;2023-04-24T12:50:19;12.60;99.90
11934;DHT22;6026;48.784;9.198;2023-04-24T12:52:44;12.70;99.90
11934;DHT22;6026;48.784;9.198;2023-04-24T12:55:10;12.80;99.90
11934;DHT22;6026;48.784;9.198;2023-04-24T12:57:38;12.80;99.90
11934;DHT22;6026;48.784;9.198;2023-04-24T13:00:05;12.80;99.90
11934;DHT22;6026;48.784;9.198;2023-04-24T13:02:31;12.70;99.90
11934;DHT22;6026;48.784;9.198;2023-04-24T13:04:58;12.60;99.90
11934;DHT22;6026;48.784;9.198;2023-04-24T13:07:24;12.40;99.90
11934;DHT22;6026;48.784;9.198;2023-04-24T13:09:51;12.40;99.90
11934;DHT22;6026;48.784;9.198;2023-04-24T13:12:17;12.40;99.90
11934;DHT22;6026;48.784;9.198;2023-04-24T13:14:43;11.90;99.90
11934;DHT22;6026;48.784;9.198;2023-04-24T13:17:08;11.50;99.90
11934;DHT22;6026;48.784;9.198;2023-04-24T13:19:39;11.30;99.90
11934;DHT22;6026;48.784;9.198;2023-04-24T13:22:06;11.30;99.90
11934;DHT22;6026;48.784;9.198;2023-04-24T13:24:32;11.40;99.90
11934;DHT22;6026;48.784;9.198;2023-04-24T13:26:58;11.40;99.90
11934;DHT22;6026;48.784;9.198;2023-04-24T13:29:24;11.50;99.90
11934;DHT22;6026;48.784;9.198;2023-04-24T13:31:50;11.80;99.90
11934;DHT22;6026;48.784;9.198;2023-04-24T13:34:17;11.90;99.90
11934;DHT22;6026;48.784;9.198;2023-04-24T13:36:42;12.00;99.90
11934;DHT22;6026;48.784;9.198;2023-04-24T13:39:08;12.00;99.90
11934;DHT22;6026;48.784;9.198;2023-04-24T13:41:34;11.90;99.90
11934;DHT22;6026;48.784;9.198;2023-04-24T13:44:00;11.90;99.90
11934;DHT22;6026;48.784;9.198;2023-04-24T13:46:26;11.80;99.90
11934;DHT22;6026;48.784;9.198;2023-04-24T13:48:51;11.80;99.90
11934;DHT22;6026;48.784;9.198;2023-04-24T13:51:18;11.80;99.90
11934;DHT22;6026;48.784;9.198;2023-04-24T13:53:43;11.70;99.90
11934;DHT22;6026;48.784;9.198;2023-04-24T13:56:09;11.20;99.90
11934;DHT22;6026;48.784;9.198;2023-04-24T13:58:35;10.30;99.90
11934;DHT22;6026;48.784;9.198;2023-04-24T14:01:02;9.90;99.90
11934;DHT22;6026;48.784;9.198;2023-04-24T14:03:28;9.60;99.90
11934;DHT22;6026;48.784;9.198;2023-04-24T14:05:54;9.50;99.90
11934;DHT22;6026;48.784;9.198;2023-04-24T14:08:20;9.70;99.90
11934;DHT22;6026;48.784;9.198;2023-04-24T14:10:45;10.20;99.90
11934;DHT22;6026;48.784;9.198;2023-04-24T14:13:11;10.70;99.90
11934;DHT22;6026;48.784;9.198;2023-04-24T14:15:37;11.00;99.90
11934;DHT22;6026;48.784;9.198;2023-04-24T14:18:03;11.30;99.90
11934;DHT22;6026;48.784;9.198;2023-04-24T14:20:29;11.30;99.90
11934;DHT22;6026;48.784;9.198;2023-04-24T14:22:54;11.50;99.90
11934;DHT22;6026;48.784;9.198;2023-04-24T14:25:20;11.60;99.90
11934;DHT22;6026;48.784;9.198;2023-04-24T14:27:47;11.90;99.90
11934;DHT22;6026;48.784;9.198;2023-04-24T14:30:13;12.10;99.90
11934;DHT22;6026;48.784;9.198;2023-04-24T14:32:39;12.20;99.90
11934;DHT22;6026;48.784;9.198;2023-04-24T14:35:06;12.30;99.90
11934;DHT22;6026;48.784;9.198;2023-04-24T14:37:32;12.50;99.90
11934;DHT22;6026;48.784;9.198;2023-04-24T14:39:57;12.60;99.90
11934;DHT22;6026;48.784;9.198;2023-04-24T14:42:23;12.90;99.90
11934;DHT22;6026;48.784;9.198;2023-04-24T14:44:49;12.80;99.90
11934;DHT22;6026;48.784;9.198;2023-04-24T14:47:14;12.70;99.90
11934;DHT22;6026;48.784;9.198;2023-04-24T14:49:40;12.40;99.90
11934;DHT22;6026;48.784;9.198;2023-04-24T14:52:06;12.10;99.90
11934;DHT22;6026;48.784;9.198;2023-04-24T14:54:31;12.00;99.90
11934;DHT22;6026;48.784;9.198;2023-04-24T14:56:57;11.80;99.90
11934;DHT22;6026;48.784;9.198;2023-04-24T14:59:22;11.90;99.90
11934;DHT22;6026;48.784;9.198;2023-04-24T15:01:48;12.00;99.90
11934;DHT22;6026;48.784;9.198;2023-04-24T15:04:14;11.80;99.90
11934;DHT22;6026;48.784;9.198;2023-04-24T15:06:40;12.00;99.90
11934;DHT22;6026;48.784;9.198;2023-04-24T15:09:06;12.10;99.90
11934;DHT22;6026;48.784;9.198;2023-04-24T15:11:32;12.30;99.90
11934;DHT22;6026;48.784;9.198;2023-04-24T15:13:57;12.10;99.90
11934;DHT22;6026;48.784;9.198;2023-04-24T15:16:23;12.10;99.90
11934;DHT22;6026;48.784;9.198;2023-04-24T15:18:49;12.10;99.90
11934;DHT22;6026;48.784;9.198;2023-04-24T15:21:15;12.10;99.90
11934;DHT22;6026;48.784;9.198;2023-04-24T15:23:40;12.00;99.90
11934;DHT22;6026;48.784;9.198;2023-04-24T15:26:06;12.00;99.90
11934;DHT22;6026;48.784;9.198;2023-04-24T15:28:31;12.00;99.90
11934;DHT22;6026;48.784;9.198;2023-04-24T15:30:57;11.80;99.90
11934;DHT22;6026;48.784;9.198;2023-04-24T15:33:23;11.70;99.90
11934;DHT22;6026;48.784;9.198;2023-04-24T15:35:48;11.70;99.90
11934;DHT22;6026;48.784;9.198;2023-04-24T15:38:14;11.60;99.90
11934;DHT22;6026;48.784;9.198;2023-04-24T15:40:40;11.60;99.90
11934;DHT22;6026;48.784;9.198;2023-04-24T15:43:05;11.40;99.90
11934;DHT22;6026;48.784;9.198;2023-04-24T15:45:31;11.00;99.90
11934;DHT22;6026;48.784;9.198;2023-04-24T15:47:57;10.70;99.90
11934;DHT22;6026;48.784;9.198;2023-04-24T15:50:23;10.60;99.90
11934;DHT22;6026;48.784;9.198;2023-04-24T15:52:49;10.40;99.90
11934;DHT22;6026;48.784;9.198;2023-04-24T15:55:15;10.40;99.90
11934;DHT22;6026;48.784;9.198;2023-04-24T15:57:41;10.30;99.90